Hemingford, Nebraska
Current Conditions -  °F | °C
As of 10:53 AM on Thursday 29 Jan 2015 (Local Time) from KAIA Reporting Station
Clear Clear  
Wind Chill: 32°   Ceiling: Unl
Heat Index: 38°   Visibility: 10mi
Dew Point: 22°   Wind: 8mph
Humidity: 53%   Direction: 350°N
Pressure: 30.49"   Gusts: NA
Location:  42.32°N, 103.07°W
Report Text: KAIA 291753Z AUTO 35007KT 10SM CLR 03/M06 A3049 RMK AO2 SLP348 T00331056 10033 21083 51011
Loading
Personal Weather Stations






























Interactive Weather Map New forecast layout! Learn more

10-Day Weather Forecast

Advertisements
Track Severe Weather on mobile